Time;durP1;ratioP1;P1;durP2;ratioP2;P2;SDS_P1;SDS_P2;PMS_P1;PMS_P2;Temp;Humidity;BMP_temperature;BMP_pressure;BME280_temperature;BME280_humidity;BME280_pressure;Samples;Min_cycle;Max_cycle;Signal;HPM_P1;HPM_P2
2021/03/01 00:00:16;;;;;;;7.40;4.67;;;;;;;0.53;89.75;100756.28;1641654;87;21172;-64
2021/03/01 00:02:44;;;;;;;5.05;4.00;;;;;;;0.50;89.83;100772.20;1641713;87;21201;-64
2021/03/01 00:05:14;;;;;;;5.80;4.33;;;;;;;0.45;89.70;100769.55;1641797;86;21174;-65
2021/03/01 00:07:42;;;;;;;7.47;4.70;;;;;;;0.47;89.84;100761.37;1641562;87;21222;-64
2021/03/01 00:10:12;;;;;;;8.20;4.62;;;;;;;0.47;89.82;100765.26;1608562;86;21846;-66
2021/03/01 00:12:42;;;;;;;5.87;4.42;;;;;;;0.45;89.78;100759.18;1597410;88;21958;-64
2021/03/01 00:15:14;;;;;;;7.25;4.97;;;;;;;0.44;89.91;100753.56;1597394;89;21197;-64
2021/03/01 00:17:42;;;;;;;6.60;4.47;;;;;;;0.45;89.87;100750.54;1597466;89;21193;-65
2021/03/01 00:20:12;;;;;;;6.00;4.40;;;;;;;0.49;90.01;100748.02;1597561;89;21465;-64
2021/03/01 00:22:40;;;;;;;5.45;4.17;;;;;;;0.52;89.90;100745.45;1597467;88;21258;-66
2021/03/01 00:25:10;;;;;;;6.33;4.50;;;;;;;0.54;89.79;100758.01;1597555;88;21228;-65
2021/03/01 00:27:38;;;;;;;5.08;3.42;;;;;;;0.55;89.91;100761.47;1597628;89;21830;-64
2021/03/01 00:30:08;;;;;;;5.90;4.10;;;;;;;0.56;89.93;100765.39;1597523;88;21227;-64
2021/03/01 00:32:37;;;;;;;7.40;4.53;;;;;;;0.60;90.08;100784.45;1597600;89;21395;-64
2021/03/01 00:35:07;;;;;;;5.97;4.05;;;;;;;0.62;90.11;100781.03;1597461;89;21224;-64
2021/03/01 00:37:35;;;;;;;6.10;3.90;;;;;;;0.65;89.81;100784.52;1597326;89;21684;-63
2021/03/01 00:40:08;;;;;;;4.97;3.98;;;;;;;0.67;89.76;100781.50;1597559;89;21640;-64
2021/03/01 00:42:39;;;;;;;4.22;3.60;;;;;;;0.63;89.60;100769.80;1597358;89;21232;-66
2021/03/01 00:45:11;;;;;;;5.30;4.03;;;;;;;0.62;89.54;100777.55;1597901;89;21476;-65
2021/03/01 00:47:39;;;;;;;5.20;4.62;;;;;;;0.59;89.68;100780.97;1597624;89;21239;-65
2021/03/01 00:50:10;;;;;;;4.83;3.80;;;;;;;0.59;89.64;100791.34;1597678;89;21789;-65
2021/03/01 00:52:37;;;;;;;5.90;4.63;;;;;;;0.59;89.58;100793.93;1623816;87;21198;-65
2021/03/01 00:55:08;;;;;;;5.62;4.35;;;;;;;0.59;89.45;100804.30;1628305;86;22192;-62
2021/03/01 00:57:37;;;;;;;8.05;5.03;;;;;;;0.55;89.40;100828.45;1615708;88;21226;-63
2021/03/01 01:00:11;;;;;;;7.25;5.30;;;;;;;0.51;89.56;100829.25;1628267;88;21650;-64
2021/03/01 01:02:39;;;;;;;6.08;4.83;;;;;;;0.48;89.77;100840.84;1628070;87;21222;-64
2021/03/01 01:05:13;;;;;;;5.25;4.53;;;;;;;0.49;89.74;100849.52;1628919;85;21236;-64
2021/03/01 01:07:42;;;;;;;5.50;3.87;;;;;;;0.49;89.71;100852.97;1628179;86;21257;-65
2021/03/01 01:10:11;;;;;;;5.65;4.37;;;;;;;0.49;89.69;100855.56;1638240;87;21398;-65
2021/03/01 01:12:39;;;;;;;5.15;4.15;;;;;;;0.50;89.81;100865.07;1641756;87;21177;-63
2021/03/01 01:15:11;;;;;;;5.90;3.72;;;;;;;0.50;89.92;100866.36;1650250;86;21200;-63
2021/03/01 01:17:39;;;;;;;5.83;4.53;;;;;;;0.50;89.82;100875.44;1651794;86;21149;-63
2021/03/01 01:20:09;;;;;;;6.53;3.83;;;;;;;0.52;90.01;100880.22;1651817;86;21187;-64
2021/03/01 01:22:37;;;;;;;4.80;3.72;;;;;;;0.52;89.84;100881.52;1651769;86;21427;-64
2021/03/01 01:25:08;;;;;;;6.08;4.03;;;;;;;0.51;89.72;100887.56;1651664;86;21195;-64
2021/03/01 01:27:36;;;;;;;4.92;3.90;;;;;;;0.50;89.85;100892.28;1617666;88;21606;-63
2021/03/01 01:30:10;;;;;;;4.85;4.15;;;;;;;0.49;89.99;100897.03;1590831;90;21211;-65
2021/03/01 01:32:38;;;;;;;6.22;4.00;;;;;;;0.47;89.93;100889.66;1617773;87;21208;-63
2021/03/01 01:35:09;;;;;;;4.55;3.60;;;;;;;0.46;89.96;100894.80;1590970;90;21244;-64
2021/03/01 01:37:38;;;;;;;6.00;3.37;;;;;;;0.45;89.82;100888.75;1617713;88;21144;-64
2021/03/01 01:40:09;;;;;;;5.78;3.75;;;;;;;0.47;89.82;100891.37;1590779;90;21266;-63
2021/03/01 01:42:37;;;;;;;5.37;3.62;;;;;;;0.47;89.92;100892.67;1617951;88;21658;-63
2021/03/01 01:45:12;;;;;;;4.42;3.35;;;;;;;0.44;89.87;100899.08;1617839;88;21184;-63
2021/03/01 01:47:42;;;;;;;7.00;3.52;;;;;;;0.43;90.02;100894.76;1617293;88;21402;-64
2021/03/01 01:50:12;;;;;;;4.40;3.07;;;;;;;0.44;90.06;100889.61;1618018;88;21252;-63
2021/03/01 01:52:42;;;;;;;3.70;2.87;;;;;;;0.50;90.10;100887.09;1617400;88;21284;-64
2021/03/01 01:55:11;;;;;;;4.25;3.00;;;;;;;0.55;90.15;100893.25;1617818;88;21225;-64
2021/03/01 01:57:40;;;;;;;5.20;2.77;;;;;;;0.56;89.97;100887.20;1617671;87;21239;-64
2021/03/01 02:03:48;;;;;;;6.60;3.27;;;;;;;0.59;90.04;100889.84;1617689;88;21231;-64
2021/03/01 02:06:41;;;;;;;3.45;3.12;;;;;;;0.59;89.97;100895.02;1617797;88;21215;-63
2021/03/01 02:09:47;;;;;;;3.35;3.05;;;;;;;0.63;89.97;100889.05;1614552;88;21179;-63
2021/03/01 02:12:38;;;;;;;5.15;3.15;;;;;;;0.67;89.89;100892.97;1607454;88;21173;-63
2021/03/01 02:15:14;;;;;;;5.00;3.35;;;;;;;0.67;89.92;100894.27;1595725;89;21307;-64
2021/03/01 02:17:41;;;;;;;5.15;4.10;;;;;;;0.63;89.86;100905.89;1591677;89;21230;-63
2021/03/01 02:20:11;;;;;;;4.37;3.52;;;;;;;0.65;90.14;100907.66;1641923;86;21288;-63
2021/03/01 02:22:40;;;;;;;3.67;2.95;;;;;;;0.66;90.25;100914.57;1641675;87;21199;-64
2021/03/01 02:25:12;;;;;;;4.40;3.98;;;;;;;0.69;90.09;100922.39;1641943;86;21769;-63
2021/03/01 02:27:52;;;;;;;4.00;3.08;;;;;;;0.71;90.09;100933.66;1641647;87;21267;-65
2021/03/01 02:30:41;;;;;;;4.53;3.58;;;;;;;0.70;89.97;100945.75;1641503;85;21461;-64
2021/03/01 02:33:14;;;;;;;6.10;4.35;;;;;;;0.69;89.98;100947.91;1641899;87;21666;-63
2021/03/01 02:35:46;;;;;;;7.25;4.22;;;;;;;0.63;89.96;100948.67;1641793;86;21231;-63
2021/03/01 02:38:14;;;;;;;6.78;4.53;;;;;;;0.59;89.91;100957.23;1641599;87;21172;-65
2021/03/01 02:40:42;;;;;;;5.20;3.80;;;;;;;0.55;89.87;100951.97;1641905;87;22366;-65
2021/03/01 02:43:12;;;;;;;5.55;3.83;;;;;;;0.57;89.87;100961.95;1641668;87;21243;-65
2021/03/01 02:45:43;;;;;;;5.80;4.30;;;;;;;0.57;89.81;100963.24;1641865;87;21180;-63
2021/03/01 02:48:12;;;;;;;6.65;4.62;;;;;;;0.56;89.77;100962.37;1641989;87;21192;-63
2021/03/01 02:50:42;;;;;;;6.27;4.60;;;;;;;0.53;89.92;100967.91;1642200;87;21184;-65
2021/03/01 02:53:14;;;;;;;7.62;5.00;;;;;;;0.53;89.96;100972.70;1641819;87;22144;-64
2021/03/01 02:55:44;;;;;;;7.83;5.08;;;;;;;0.51;90.01;100974.39;1641748;87;21173;-64
2021/03/01 02:58:15;;;;;;;;;;;;;;;0.51;89.88;100984.76;1644218;87;21196;-64
2021/03/01 03:00:43;;;;;;;8.30;4.83;;;;;;;0.54;89.88;100987.39;1641776;87;20320;-63
2021/03/01 03:03:11;;;;;;;5.22;4.10;;;;;;;0.54;89.99;100991.28;1641734;87;21164;-64
2021/03/01 03:05:41;;;;;;;8.68;4.97;;;;;;;0.53;89.97;101001.21;1641826;87;21655;-66
2021/03/01 03:08:11;;;;;;;8.63;5.55;;;;;;;0.54;90.02;101002.95;1641802;87;21176;-64
2021/03/01 03:10:40;;;;;;;6.45;4.60;;;;;;;0.54;90.00;101010.72;1604995;87;21191;-64
2021/03/01 03:13:09;;;;;;;6.85;4.83;;;;;;;0.52;89.86;101011.11;1602713;88;21619;-64
2021/03/01 03:15:39;;;;;;;4.90;3.70;;;;;;;0.53;89.93;101011.58;1601767;88;21203;-64
2021/03/01 03:18:12;;;;;;;5.67;3.70;;;;;;;0.53;89.78;101017.16;1625327;88;22372;-64
2021/03/01 03:20:39;;;;;;;6.95;5.05;;;;;;;0.51;89.80;101014.56;1625064;88;21232;-65
2021/03/01 03:23:08;;;;;;;6.00;3.75;;;;;;;0.52;89.93;101009.81;1625163;88;21277;-64
2021/03/01 03:25:36;;;;;;;8.33;4.62;;;;;;;0.55;89.92;101011.59;1625144;88;21206;-62
2021/03/01 03:28:06;;;;;;;6.25;4.45;;;;;;;0.57;90.00;101016.37;1625105;88;21614;-65
2021/03/01 03:30:34;;;;;;;5.03;3.72;;;;;;;0.57;89.81;101022.43;1625188;88;21246;-65
2021/03/01 03:33:03;;;;;;;6.62;4.65;;;;;;;0.57;89.66;101023.72;1625129;88;21231;-65
2021/03/01 03:35:32;;;;;;;5.30;3.98;;;;;;;0.55;89.76;101022.85;1625154;88;21187;-67
2021/03/01 03:38:04;;;;;;;7.05;4.85;;;;;;;0.53;89.76;101024.55;1625075;88;21657;-64
2021/03/01 03:40:33;;;;;;;6.67;4.58;;;;;;;0.54;89.80;101018.50;1625260;88;21163;-64
2021/03/01 03:43:03;;;;;;;7.33;4.70;;;;;;;0.53;89.92;101019.75;1625228;88;21543;-65
2021/03/01 03:45:30;;;;;;;5.33;3.80;;;;;;;0.53;89.78;101018.06;1625235;88;21702;-63
2021/03/01 03:48:02;;;;;;;4.62;3.80;;;;;;;0.53;89.78;101024.55;1625135;88;21465;-64
2021/03/01 03:50:30;;;;;;;5.00;4.00;;;;;;;0.49;89.74;101025.33;1625238;88;21749;-63
2021/03/01 03:53:09;;;;;;;7.17;5.05;;;;;;;0.45;89.62;101023.52;1625141;88;21186;-63
2021/03/01 03:55:37;;;;;;;6.30;4.33;;;;;;;0.41;89.79;101026.88;1625211;88;21424;-63
2021/03/01 03:58:07;;;;;;;5.25;3.90;;;;;;;0.41;89.82;101029.48;1602998;88;21974;-63
2021/03/01 04:00:35;;;;;;;5.50;4.20;;;;;;;0.43;89.71;101031.67;1625280;88;25309;-64
2021/03/01 04:03:11;;;;;;;4.67;3.90;;;;;;;0.43;89.87;101035.56;1625087;88;21171;-64
2021/03/01 04:05:41;;;;;;;5.87;4.40;;;;;;;0.46;89.83;101036.04;1625184;88;21199;-64
2021/03/01 04:08:12;;;;;;;6.37;5.15;;;;;;;0.46;89.84;101043.42;1625078;88;22317;-64
2021/03/01 04:10:44;;;;;;;5.85;4.47;;;;;;;0.47;89.95;101042.56;1650238;86;21184;-63
2021/03/01 04:13:13;;;;;;;6.25;4.45;;;;;;;0.46;89.84;101044.72;1651748;86;21187;-64
2021/03/01 04:15:44;;;;;;;6.30;4.15;;;;;;;0.44;89.70;101047.70;1651796;86;21160;-64
2021/03/01 04:18:11;;;;;;;4.70;3.85;;;;;;;0.43;89.69;101045.06;1595745;88;21167;-64
2021/03/01 04:20:39;;;;;;;5.87;4.30;;;;;;;0.44;89.73;101045.10;1590895;90;21397;-64
2021/03/01 04:23:08;;;;;;;5.92;3.75;;;;;;;0.48;89.86;101048.61;1617694;88;21268;-64
2021/03/01 04:25:36;;;;;;;6.47;4.22;;;;;;;0.46;89.69;101047.70;1590888;89;21193;-64
2021/03/01 04:28:05;;;;;;;6.70;5.08;;;;;;;0.41;89.84;101045.02;1617658;88;21167;-62
2021/03/01 04:30:33;;;;;;;5.25;4.28;;;;;;;0.48;89.86;101056.38;1590829;90;21227;-63
2021/03/01 04:33:00;;;;;;;4.83;3.70;;;;;;;0.53;89.68;101057.34;1617931;88;22425;-63
2021/03/01 04:35:29;;;;;;;3.60;2.60;;;;;;;0.56;89.60;101060.01;1590891;89;21287;-63
2021/03/01 04:37:56;;;;;;;5.65;4.22;;;;;;;0.57;89.69;101062.61;1617753;88;21615;-64
2021/03/01 04:40:23;;;;;;;4.40;3.50;;;;;;;0.63;90.13;101067.05;1607346;88;21622;-63
2021/03/01 04:42:51;;;;;;;6.08;2.90;;;;;;;0.63;90.24;101077.42;1603167;89;21587;-63
2021/03/01 04:45:19;;;;;;;5.70;4.60;;;;;;;0.65;90.14;101077.46;1606094;89;22395;-63
2021/03/01 04:47:49;;;;;;;6.37;5.03;;;;;;;0.68;90.54;101077.50;1603221;89;21662;-62
2021/03/01 04:50:20;;;;;;;4.08;3.25;;;;;;;0.70;90.23;101083.16;1605991;88;21243;-62
2021/03/01 04:52:47;;;;;;;4.33;3.87;;;;;;;0.71;89.88;101094.40;1603234;89;21989;-62
2021/03/01 04:55:15;;;;;;;4.47;3.50;;;;;;;0.72;90.07;101096.17;1606164;89;21661;-63
2021/03/01 04:57:42;;;;;;;6.90;4.03;;;;;;;0.71;89.94;101105.64;1603198;89;21238;-64
2021/03/01 05:00:12;;;;;;;6.35;4.30;;;;;;;0.73;90.27;101103.09;1579752;89;21271;-65
2021/03/01 05:02:40;;;;;;;6.70;4.03;;;;;;;0.74;90.09;101111.33;1603174;88;21238;-64
2021/03/01 05:05:10;;;;;;;5.55;4.37;;;;;;;0.71;89.84;101113.84;1603233;88;21210;-64
2021/03/01 05:07:38;;;;;;;9.15;4.87;;;;;;;0.74;90.00;101116.52;1603845;89;21302;-62
2021/03/01 05:10:12;;;;;;;4.83;4.10;;;;;;;0.75;89.88;101126.03;1606582;89;21568;-64
2021/03/01 05:12:40;;;;;;;6.22;4.55;;;;;;;0.77;90.03;101125.21;1606105;89;21509;-63
2021/03/01 05:15:11;;;;;;;5.08;3.92;;;;;;;0.78;90.35;101131.27;1603740;89;21235;-64
2021/03/01 05:17:39;;;;;;;5.28;4.65;;;;;;;0.76;90.10;101130.36;1641710;87;21783;-63
2021/03/01 05:20:10;;;;;;;7.87;4.92;;;;;;;0.76;90.27;101129.96;1641776;87;21244;-63
2021/03/01 05:22:38;;;;;;;4.13;3.27;;;;;;;0.75;90.03;101141.59;1642086;87;21215;-64
2021/03/01 05:25:08;;;;;;;7.72;5.00;;;;;;;0.72;89.78;101145.00;1630379;85;21185;-65
2021/03/01 05:27:36;;;;;;;6.75;4.42;;;;;;;0.75;89.94;101148.94;1630555;87;21191;-64
2021/03/01 05:30:07;;;;;;;6.97;4.08;;;;;;;0.74;89.79;101151.09;1628568;87;21230;-63
2021/03/01 05:32:35;;;;;;;6.15;4.83;;;;;;;0.76;89.86;101153.70;1626433;87;21200;-64
2021/03/01 05:35:08;;;;;;;6.72;4.95;;;;;;;0.79;90.17;101165.44;1633511;85;21689;-64
2021/03/01 05:37:36;;;;;;;7.35;5.42;;;;;;;0.79;90.00;101170.63;1625209;86;21201;-63
2021/03/01 05:40:06;;;;;;;7.03;5.33;;;;;;;0.82;90.27;101178.03;1626118;87;21229;-65
2021/03/01 05:42:35;;;;;;;6.47;5.12;;;;;;;0.83;90.17;101178.50;1644214;87;21245;-62
2021/03/01 05:45:05;;;;;;;6.83;5.30;;;;;;;0.87;89.94;101183.73;1636824;85;21216;-64
2021/03/01 05:47:35;;;;;;;6.30;4.05;;;;;;;0.86;89.86;101186.76;1629981;87;21337;-63
2021/03/01 05:50:10;;;;;;;6.95;4.97;;;;;;;0.83;89.70;101195.36;1625241;87;21577;-64
2021/03/01 05:52:43;;;;;;;7.45;4.80;;;;;;;0.83;89.65;101208.33;1619797;87;21256;-63
2021/03/01 05:55:12;;;;;;;8.53;5.00;;;;;;;0.84;90.22;101213.08;1636140;86;21620;-63
2021/03/01 05:57:40;;;;;;;7.72;4.47;;;;;;;0.86;89.69;101219.17;1625617;87;21592;-63
2021/03/01 06:00:11;;;;;;;6.12;4.90;;;;;;;0.87;89.65;101222.20;1637872;87;21472;-63
2021/03/01 06:02:39;;;;;;;6.70;4.62;;;;;;;0.87;89.70;101223.94;1621741;87;21467;-63
2021/03/01 06:05:10;;;;;;;9.10;5.67;;;;;;;0.86;89.42;101228.25;1640327;86;21219;-63
2021/03/01 06:07:38;;;;;;;9.93;5.73;;;;;;;0.86;89.43;101233.87;1631802;87;21192;-65
2021/03/01 06:10:09;;;;;;;6.78;4.97;;;;;;;0.82;89.46;101235.52;1640343;87;21472;-65
2021/03/01 06:12:37;;;;;;;9.95;6.03;;;;;;;0.85;89.38;101234.27;1633439;87;27276;-65
2021/03/01 06:15:07;;;;;;;7.83;5.80;;;;;;;0.89;89.44;101239.97;1630953;87;21189;-63
2021/03/01 06:17:34;;;;;;;7.87;5.50;;;;;;;0.88;89.25;101244.72;1632706;87;21822;-66
2021/03/01 06:20:04;;;;;;;10.38;5.75;;;;;;;0.91;89.41;101246.07;1629643;87;21195;-65
2021/03/01 06:22:42;;;;;;;8.83;5.40;;;;;;;0.91;89.53;101251.26;1626412;87;21222;-65
2021/03/01 06:25:16;;;;;;;10.68;6.03;;;;;;;0.95;89.32;101256.10;1627716;87;21230;-67
2021/03/01 06:27:53;;;;;;;6.15;4.37;;;;;;;0.97;89.34;101255.28;1625164;86;21271;-65
2021/03/01 06:30:36;;;;;;;10.00;6.62;;;;;;;0.99;89.28;101264.37;1619341;87;21173;-66
2021/03/01 06:33:15;;;;;;;9.10;6.53;;;;;;;1.01;89.25;101268.77;1608133;87;21421;-67
2021/03/01 06:35:50;;;;;;;8.35;4.83;;;;;;;1.00;89.25;101276.09;1629205;87;21222;-67
2021/03/01 06:38:26;;;;;;;8.53;6.10;;;;;;;1.01;89.35;101277.86;1613533;87;22266;-67
2021/03/01 06:41:12;;;;;;;10.90;6.22;;;;;;;1.05;89.11;101284.83;1624772;87;21230;-68
2021/03/01 06:43:54;;;;;;;8.15;6.00;;;;;;;1.07;89.00;101293.09;1626884;87;21697;-68
2021/03/01 06:46:24;;;;;;;12.03;5.47;;;;;;;1.04;89.13;101296.06;1626930;87;21195;-68
2021/03/01 06:48:52;;;;;;;8.88;6.55;;;;;;;1.08;88.98;101295.69;1621946;87;26737;-68
2021/03/01 06:51:20;;;;;;;10.95;5.75;;;;;;;1.16;89.44;101299.76;1614208;86;21477;-68
2021/03/01 06:53:59;;;;;;;8.05;5.75;;;;;;;1.19;88.87;101302.41;1622838;87;21223;-67
2021/03/01 06:56:39;;;;;;;11.15;6.28;;;;;;;1.25;88.72;101311.62;1606238;87;21206;-68
2021/03/01 06:59:11;;;;;;;8.30;6.13;;;;;;;1.28;89.08;101314.70;1627493;87;21203;-68
2021/03/01 07:01:49;;;;;;;11.00;5.78;;;;;;;1.25;88.57;101315.52;1627590;87;21211;-69
2021/03/01 07:04:26;;;;;;;10.30;7.03;;;;;;;1.28;87.95;101323.34;1607587;87;21372;-68
2021/03/01 07:06:56;;;;;;;9.38;6.20;;;;;;;1.29;88.36;101319.02;1619107;87;21260;-68
2021/03/01 07:09:29;;;;;;;13.28;8.15;;;;;;;1.30;88.18;101328.15;1625458;86;25940;-68
2021/03/01 07:11:57;;;;;;;10.00;7.25;;;;;;;1.33;88.17;101326.91;1625494;87;21211;-69
2021/03/01 07:14:28;;;;;;;8.88;6.60;;;;;;;1.29;87.91;101326.41;1614197;87;21602;-68
2021/03/01 07:16:59;;;;;;;9.38;7.15;;;;;;;1.28;87.74;101328.54;1605384;87;25174;-68
2021/03/01 07:19:33;;;;;;;11.53;7.50;;;;;;;1.31;87.62;101331.22;1629635;87;21211;-69
2021/03/01 07:22:13;;;;;;;8.25;5.90;;;;;;;1.28;87.55;101333.73;1619387;86;21211;-68
2021/03/01 07:24:38;;;;;;;11.60;7.62;;;;;;;1.29;87.53;101331.60;1629403;86;21298;-67
2021/03/01 07:27:06;;;;;;;10.58;7.33;;;;;;;1.28;87.55;101332.86;1629662;87;21228;-68
2021/03/01 07:29:37;;;;;;;9.45;7.90;;;;;;;1.30;87.53;101338.96;1609055;87;22338;-68
2021/03/01 07:32:12;;;;;;;9.40;7.03;;;;;;;1.33;87.51;101345.50;1609174;87;21229;-68
2021/03/01 07:34:40;;;;;;;13.78;7.05;;;;;;;1.34;87.74;101341.65;1624322;87;21366;-69
2021/03/01 07:37:09;;;;;;;12.40;7.75;;;;;;;1.40;87.87;101335.69;1630200;87;21708;-68
2021/03/01 07:39:37;;;;;;;11.08;7.80;;;;;;;1.48;87.77;101343.65;1630852;87;21253;-68
2021/03/01 07:42:07;;;;;;;10.65;7.60;;;;;;;1.54;87.79;101353.73;1630635;87;21365;-69
2021/03/01 07:44:36;;;;;;;9.15;6.90;;;;;;;1.57;87.48;101352.91;1606910;87;21284;-67
2021/03/01 07:47:05;;;;;;;10.13;6.47;;;;;;;1.61;87.28;101354.30;1616165;88;21217;-68
2021/03/01 07:49:41;;;;;;;9.83;6.40;;;;;;;1.64;87.18;101348.28;1582029;90;21238;-69
2021/03/01 07:52:27;;;;;;;11.40;8.35;;;;;;;1.71;87.23;101346.25;1603760;87;21193;-69
2021/03/01 07:54:58;;;;;;;10.85;7.12;;;;;;;1.76;87.20;101352.83;1592203;89;21236;-69
2021/03/01 07:57:28;;;;;;;10.80;8.20;;;;;;;1.76;86.96;101346.34;1587587;90;21228;-70
2021/03/01 08:00:01;;;;;;;10.72;7.62;;;;;;;1.83;86.92;101349.06;1572684;91;21231;-68
2021/03/01 08:02:34;;;;;;;10.63;7.17;;;;;;;1.88;86.71;101356.51;1617452;87;21255;-69
2021/03/01 08:05:23;;;;;;;10.68;7.67;;;;;;;1.92;86.45;101360.48;1626169;87;21223;-68
2021/03/01 08:07:59;;;;;;;11.77;7.70;;;;;;;2.00;86.23;101363.67;1798302;79;23199;-69
2021/03/01 08:10:35;;;;;;;14.00;8.50;;;;;;;2.01;86.61;101366.71;1765891;80;21199;-69
2021/03/01 08:13:06;;;;;;;12.07;8.33;;;;;;;2.08;86.36;101366.40;1762200;80;22285;-68
2021/03/01 08:15:44;;;;;;;11.90;6.87;;;;;;;2.19;86.74;101370.06;1779503;80;21191;-67
2021/03/01 08:18:14;;;;;;;11.95;7.70;;;;;;;2.33;86.48;101369.42;1772565;80;21199;-68
2021/03/01 08:20:53;;;;;;;11.53;8.27;;;;;;;2.48;86.15;101374.85;1777634;80;21179;-68
2021/03/01 08:23:23;;;;;;;11.88;7.97;;;;;;;2.61;85.95;101378.10;1770068;80;21248;-67
2021/03/01 08:25:53;;;;;;;12.25;8.60;;;;;;;2.69;85.53;101380.81;1744132;80;21341;-69
2021/03/01 08:28:32;;;;;;;12.43;7.80;;;;;;;2.82;85.38;101383.19;1763482;79;21194;-69
2021/03/01 08:31:22;;;;;;;12.37;8.35;;;;;;;2.94;83.29;101383.35;1759893;79;21651;-70
2021/03/01 08:33:49;;;;;;;11.60;7.25;;;;;;;2.94;83.29;101383.35;1761582;80;21234;-69
2021/03/01 08:36:21;;;;;;;11.85;8.18;;;;;;;2.93;83.29;101390.72;1754605;79;21200;-69
2021/03/01 08:38:50;;;;;;;10.53;6.97;;;;;;;3.02;84.06;101394.76;1758194;80;21211;-70
2021/03/01 08:41:21;;;;;;;11.60;8.25;;;;;;;3.16;84.26;101392.34;1767858;80;21258;-71
2021/03/01 08:43:52;;;;;;;11.08;7.33;;;;;;;3.41;83.62;101393.55;1708956;83;21119;-70
2021/03/01 08:46:21;;;;;;;8.83;6.97;;;;;;;3.66;84.28;101392.52;1712747;83;21351;-70
2021/03/01 08:48:54;;;;;;;8.58;6.40;;;;;;;3.95;82.70;101396.31;1702218;82;21221;-69
2021/03/01 08:51:23;;;;;;;9.83;6.80;;;;;;;4.15;80.50;101393.92;1700598;83;21217;-69
2021/03/01 08:53:53;;;;;;;7.97;6.10;;;;;;;4.41;81.00;101395.44;1724622;82;21203;-69
2021/03/01 08:56:26;;;;;;;8.65;5.78;;;;;;;4.70;79.56;101394.81;1693941;83;21219;-70
2021/03/01 08:58:55;;;;;;;7.65;4.97;;;;;;;4.86;77.17;101398.84;1717978;81;21174;-69
2021/03/01 09:01:23;;;;;;;7.30;5.47;;;;;;;4.86;77.05;101402.77;1706306;83;21231;-70
2021/03/01 09:03:53;;;;;;;6.08;4.20;;;;;;;4.93;76.83;101404.55;1698407;83;21674;-67
2021/03/01 09:06:22;;;;;;;5.17;3.80;;;;;;;5.15;77.85;101406.40;1700027;82;21215;-71
2021/03/01 09:08:55;;;;;;;6.15;4.33;;;;;;;5.39;76.43;101408.73;1747074;80;22105;-70
2021/03/01 09:11:30;;;;;;;7.08;4.80;;;;;;;5.59;73.90;101416.22;1742990;81;21226;-70
2021/03/01 09:14:00;;;;;;;6.05;4.95;;;;;;;5.74;74.11;101415.39;1746942;81;21234;-72
2021/03/01 09:16:36;;;;;;;7.67;5.20;;;;;;;5.95;73.91;101414.61;1744291;81;21257;-72
2021/03/01 09:19:10;;;;;;;6.67;5.17;;;;;;;6.05;72.88;101419.42;1750048;81;21302;-72
2021/03/01 09:21:42;;;;;;;6.75;4.58;;;;;;;5.94;71.82;101422.44;1727906;81;21147;-72
2021/03/01 09:24:14;;;;;;;4.30;3.70;;;;;;;5.91;71.52;101430.25;1761246;81;21182;-72
2021/03/01 09:26:44;;;;;;;4.67;3.87;;;;;;;5.80;70.99;101431.55;1755631;81;21164;-71
2021/03/01 09:29:14;;;;;;;5.05;4.47;;;;;;;5.61;71.26;101435.40;1752756;81;21209;-72
2021/03/01 09:31:54;;;;;;;5.70;4.53;;;;;;;5.47;71.26;101433.13;1757507;81;21215;-70
2021/03/01 09:34:27;;;;;;;5.35;4.10;;;;;;;5.40;72.05;101443.11;1738622;81;21246;-70
2021/03/01 09:36:57;;;;;;;7.35;5.40;;;;;;;5.22;71.06;101450.00;1745264;81;21170;-70
2021/03/01 09:39:26;;;;;;;6.22;4.90;;;;;;;5.11;72.29;101449.05;1747853;81;21147;-71
2021/03/01 09:41:55;;;;;;;6.40;4.45;;;;;;;4.97;72.18;101456.80;1740521;81;21200;-70
2021/03/01 09:44:29;;;;;;;5.78;4.65;;;;;;;4.87;71.96;101458.01;1754865;81;21187;-70
2021/03/01 09:47:03;;;;;;;6.78;5.05;;;;;;;4.84;72.50;101466.25;1750113;81;21627;-71
2021/03/01 09:49:31;;;;;;;6.20;4.40;;;;;;;4.74;72.52;101469.66;1737745;81;21683;-71
2021/03/01 09:52:00;;;;;;;6.80;5.20;;;;;;;4.67;72.37;101461.34;1737830;82;21203;-71
2021/03/01 09:54:29;;;;;;;6.47;4.85;;;;;;;4.82;73.48;101455.36;1746973;81;21203;-70
2021/03/01 09:57:07;;;;;;;6.70;4.87;;;;;;;5.01;72.92;101461.14;1756183;81;21139;-70
2021/03/01 09:59:39;;;;;;;6.37;4.90;;;;;;;5.25;72.24;101459.15;1747135;80;21216;-69
2021/03/01 10:02:17;;;;;;;6.72;4.55;;;;;;;5.38;72.23;101457.91;1750815;81;21162;-70
2021/03/01 10:04:46;;;;;;;6.17;4.45;;;;;;;5.44;70.88;101457.51;1745314;81;21199;-70
2021/03/01 10:10:15;;;;;;;4.90;3.58;;;;;;;5.65;71.52;101451.95;1854618;76;26590;-69
2021/03/01 10:12:45;;;;;;;7.12;4.30;;;;;;;5.70;69.05;101451.52;1798814;78;21191;-70
2021/03/01 10:15:16;;;;;;;4.85;3.70;;;;;;;5.71;69.26;101445.45;1801786;78;21868;-69
2021/03/01 10:17:44;;;;;;;6.05;4.40;;;;;;;5.74;69.90;101448.50;1807668;78;21195;-69
2021/03/01 10:20:14;;;;;;;5.12;3.75;;;;;;;5.73;68.41;101449.35;1818532;78;21186;-71
2021/03/01 10:23:03;;;;;;;5.20;3.60;;;;;;;5.71;69.07;101446.75;1825088;78;21653;-69
2021/03/01 10:25:40;;;;;;;6.30;4.17;;;;;;;5.74;68.96;101447.20;1825944;77;21199;-70
2021/03/01 10:28:28;;;;;;;4.10;3.60;;;;;;;5.74;67.64;101441.53;1825067;78;21523;-70
2021/03/01 10:31:09;;;;;;;3.85;3.05;;;;;;;5.70;69.28;101437.59;1824785;78;21213;-70
2021/03/01 10:33:54;;;;;;;7.20;4.60;;;;;;;5.64;68.87;101432.78;1823616;78;21185;-69
2021/03/01 10:36:29;;;;;;;5.20;4.10;;;;;;;5.67;68.88;101428.87;1825629;78;21186;-70
2021/03/01 10:40:45;;;;;;;6.58;4.35;;;;;;;5.55;68.11;101431.44;1856671;76;28655;-69
2021/03/01 10:43:14;;;;;;;9.23;7.17;;;;;;;5.44;69.28;101428.77;1817705;78;21166;-69
2021/03/01 10:45:49;;;;;;;5.92;4.90;;;;;;;5.42;68.69;101439.64;1818178;78;21367;-69
2021/03/01 10:48:14;;;;;;;5.85;4.35;;;;;;;5.39;68.49;101445.30;1818194;78;21217;-69
2021/03/01 10:50:43;;;;;;;6.78;3.62;;;;;;;5.40;70.34;101437.89;1818500;78;21238;-69
2021/03/01 10:53:12;;;;;;;6.60;4.22;;;;;;;5.40;69.33;101446.59;1818539;78;22161;-70
2021/03/01 10:55:40;;;;;;;5.85;4.25;;;;;;;5.37;69.16;101450.94;1818090;78;21158;-69
2021/03/01 10:58:09;;;;;;;6.10;4.20;;;;;;;5.35;71.21;101447.45;1818674;78;21321;-69
2021/03/01 11:00:38;;;;;;;6.25;4.20;;;;;;;5.30;69.51;101451.78;1818867;78;21162;-68
2021/03/01 11:03:07;;;;;;;5.65;4.40;;;;;;;5.28;70.29;101452.20;1819320;78;21155;-70
2021/03/01 11:05:36;;;;;;;5.87;4.17;;;;;;;5.25;70.19;101453.92;1829414;78;21175;-70
2021/03/01 11:08:08;;;;;;;5.03;4.15;;;;;;;5.21;69.17;101457.81;1828518;78;21174;-69
2021/03/01 11:10:35;;;;;;;5.55;4.15;;;;;;;5.13;70.08;101455.16;1830013;78;21443;-69
2021/03/01 11:13:03;;;;;;;5.65;4.22;;;;;;;5.06;69.56;101452.04;1830051;77;21560;-69
2021/03/01 11:15:31;;;;;;;5.42;3.42;;;;;;;5.02;69.42;101459.00;1825833;77;21685;-69
2021/03/01 11:18:00;;;;;;;6.40;3.95;;;;;;;4.97;69.91;101455.89;1837917;77;21148;-70
2021/03/01 11:20:30;;;;;;;5.60;3.50;;;;;;;4.95;69.22;101447.20;1816849;77;21166;-70
2021/03/01 11:22:58;;;;;;;4.83;3.72;;;;;;;4.91;70.00;101448.91;1837203;77;21366;-69
2021/03/01 11:25:28;;;;;;;7.22;4.85;;;;;;;4.89;71.25;101449.77;1815694;79;21201;-70
2021/03/01 11:27:57;;;;;;;5.22;4.15;;;;;;;4.89;70.51;101447.15;1816189;78;21194;-69
2021/03/01 11:30:28;;;;;;;7.20;5.05;;;;;;;4.82;71.89;101447.09;1828064;78;21142;-70
2021/03/01 11:32:56;;;;;;;8.73;4.72;;;;;;;4.77;70.37;101448.80;1830394;78;21574;-70
2021/03/01 11:35:27;;;;;;;7.47;4.90;;;;;;;4.72;70.66;101458.78;1829902;78;21179;-71
2021/03/01 11:38:06;;;;;;;7.47;4.77;;;;;;;4.71;70.50;101456.57;1819187;77;27080;-71
2021/03/01 11:40:34;;;;;;;6.90;5.40;;;;;;;4.67;70.34;101449.61;1783060;79;21217;-70
2021/03/01 11:43:03;;;;;;;7.50;4.78;;;;;;;4.68;69.67;101456.55;1783226;79;21241;-70
2021/03/01 11:45:31;;;;;;;6.05;4.78;;;;;;;4.66;70.12;101450.45;1782955;79;21229;-71
2021/03/01 11:48:01;;;;;;;6.92;4.72;;;;;;;4.72;69.98;101449.64;1783251;79;21191;-70
2021/03/01 11:50:30;;;;;;;5.35;3.90;;;;;;;4.73;70.62;101446.16;1782917;79;21190;-70
2021/03/01 11:52:57;;;;;;;5.65;4.80;;;;;;;4.73;70.23;101449.63;1782950;79;21577;-70
2021/03/01 11:55:28;;;;;;;5.80;4.45;;;;;;;4.72;70.52;101443.98;1748403;82;21261;-70
2021/03/01 11:57:57;;;;;;;7.12;4.30;;;;;;;4.72;71.61;101447.90;1749470;80;21163;-70